sensor_id;sensor_type;location;lat;lon;timestamp;P1;durP1;ratioP1;P2;durP2;ratioP2
74898;SDS011;63458;48.210;16.338;2023-06-22T00:02:13;10.80;;;5.90;;
74898;SDS011;63458;48.210;16.338;2023-06-22T00:04:39;10.43;;;5.50;;
74898;SDS011;63458;48.210;16.338;2023-06-22T00:07:05;11.38;;;5.70;;
74898;SDS011;63458;48.210;16.338;2023-06-22T00:09:31;14.00;;;6.35;;
74898;SDS011;63458;48.210;16.338;2023-06-22T00:11:58;9.90;;;5.78;;
74898;SDS011;63458;48.210;16.338;2023-06-22T00:14:24;11.32;;;5.30;;
74898;SDS011;63458;48.210;16.338;2023-06-22T00:16:50;12.77;;;6.05;;
74898;SDS011;63458;48.210;16.338;2023-06-22T00:19:20;11.77;;;5.25;;
74898;SDS011;63458;48.210;16.338;2023-06-22T00:21:46;11.05;;;5.10;;
74898;SDS011;63458;48.210;16.338;2023-06-22T00:24:13;10.40;;;5.85;;
74898;SDS011;63458;48.210;16.338;2023-06-22T00:26:39;11.93;;;6.15;;
74898;SDS011;63458;48.210;16.338;2023-06-22T00:29:05;12.18;;;6.05;;
74898;SDS011;63458;48.210;16.338;2023-06-22T00:31:31;10.82;;;5.90;;
74898;SDS011;63458;48.210;16.338;2023-06-22T00:33:57;13.52;;;5.78;;
74898;SDS011;63458;48.210;16.338;2023-06-22T00:36:23;11.98;;;5.90;;
74898;SDS011;63458;48.210;16.338;2023-06-22T00:38:49;11.32;;;5.88;;
74898;SDS011;63458;48.210;16.338;2023-06-22T00:41:16;10.80;;;5.68;;
74898;SDS011;63458;48.210;16.338;2023-06-22T00:43:42;13.10;;;6.30;;
74898;SDS011;63458;48.210;16.338;2023-06-22T00:46:08;11.20;;;6.38;;
74898;SDS011;63458;48.210;16.338;2023-06-22T00:48:34;13.50;;;6.07;;
74898;SDS011;63458;48.210;16.338;2023-06-22T00:51:01;14.23;;;5.93;;
74898;SDS011;63458;48.210;16.338;2023-06-22T00:53:28;12.85;;;5.88;;
74898;SDS011;63458;48.210;16.338;2023-06-22T00:55:54;12.27;;;5.85;;
74898;SDS011;63458;48.210;16.338;2023-06-22T00:58:21;13.70;;;5.95;;
74898;SDS011;63458;48.210;16.338;2023-06-22T01:00:47;11.23;;;5.63;;
74898;SDS011;63458;48.210;16.338;2023-06-22T01:03:13;14.02;;;5.65;;
74898;SDS011;63458;48.210;16.338;2023-06-22T01:05:41;10.70;;;6.10;;
74898;SDS011;63458;48.210;16.338;2023-06-22T01:11:16;13.27;;;6.10;;
74898;SDS011;63458;48.210;16.338;2023-06-22T01:13:50;10.48;;;5.80;;
74898;SDS011;63458;48.210;16.338;2023-06-22T01:16:29;11.50;;;5.72;;
74898;SDS011;63458;48.210;16.338;2023-06-22T01:18:55;13.05;;;6.20;;
74898;SDS011;63458;48.210;16.338;2023-06-22T01:21:23;11.48;;;5.70;;
74898;SDS011;63458;48.210;16.338;2023-06-22T01:26:37;11.80;;;6.00;;
74898;SDS011;63458;48.210;16.338;2023-06-22T01:29:04;10.57;;;5.43;;
74898;SDS011;63458;48.210;16.338;2023-06-22T01:31:32;10.50;;;5.30;;
74898;SDS011;63458;48.210;16.338;2023-06-22T01:34:01;11.65;;;6.22;;
74898;SDS011;63458;48.210;16.338;2023-06-22T01:36:28;10.85;;;5.63;;
74898;SDS011;63458;48.210;16.338;2023-06-22T01:41:21;11.95;;;5.05;;
74898;SDS011;63458;48.210;16.338;2023-06-22T01:43:47;11.90;;;6.05;;
74898;SDS011;63458;48.210;16.338;2023-06-22T01:46:14;10.48;;;5.68;;
74898;SDS011;63458;48.210;16.338;2023-06-22T01:48:41;11.35;;;4.82;;
74898;SDS011;63458;48.210;16.338;2023-06-22T01:51:07;11.90;;;5.38;;
74898;SDS011;63458;48.210;16.338;2023-06-22T01:53:33;12.40;;;5.10;;
74898;SDS011;63458;48.210;16.338;2023-06-22T01:55:59;13.02;;;5.35;;
74898;SDS011;63458;48.210;16.338;2023-06-22T01:58:26;11.10;;;5.72;;
74898;SDS011;63458;48.210;16.338;2023-06-22T02:01:07;11.05;;;5.38;;
74898;SDS011;63458;48.210;16.338;2023-06-22T02:03:35;9.77;;;4.88;;
74898;SDS011;63458;48.210;16.338;2023-06-22T02:06:04;11.20;;;5.25;;
74898;SDS011;63458;48.210;16.338;2023-06-22T02:08:33;10.80;;;5.20;;
74898;SDS011;63458;48.210;16.338;2023-06-22T02:11:01;10.18;;;5.15;;
74898;SDS011;63458;48.210;16.338;2023-06-22T02:13:28;10.68;;;5.10;;
74898;SDS011;63458;48.210;16.338;2023-06-22T02:15:54;9.85;;;5.07;;
74898;SDS011;63458;48.210;16.338;2023-06-22T02:18:20;9.73;;;4.75;;
74898;SDS011;63458;48.210;16.338;2023-06-22T02:20:46;13.45;;;6.25;;
74898;SDS011;63458;48.210;16.338;2023-06-22T02:23:12;10.80;;;4.95;;
74898;SDS011;63458;48.210;16.338;2023-06-22T02:25:38;11.77;;;6.05;;
74898;SDS011;63458;48.210;16.338;2023-06-22T02:28:04;13.13;;;5.75;;
74898;SDS011;63458;48.210;16.338;2023-06-22T02:30:31;11.48;;;5.30;;
74898;SDS011;63458;48.210;16.338;2023-06-22T02:32:57;9.73;;;5.85;;
74898;SDS011;63458;48.210;16.338;2023-06-22T02:35:32;10.50;;;4.78;;
74898;SDS011;63458;48.210;16.338;2023-06-22T02:38:01;11.18;;;6.07;;
74898;SDS011;63458;48.210;16.338;2023-06-22T02:40:27;10.38;;;5.03;;
74898;SDS011;63458;48.210;16.338;2023-06-22T02:42:54;9.88;;;5.20;;
74898;SDS011;63458;48.210;16.338;2023-06-22T02:45:20;12.45;;;5.32;;
74898;SDS011;63458;48.210;16.338;2023-06-22T02:47:46;11.45;;;5.28;;
74898;SDS011;63458;48.210;16.338;2023-06-22T02:50:15;11.07;;;4.95;;
74898;SDS011;63458;48.210;16.338;2023-06-22T02:52:41;10.93;;;5.45;;
74898;SDS011;63458;48.210;16.338;2023-06-22T02:55:07;11.85;;;5.55;;
74898;SDS011;63458;48.210;16.338;2023-06-22T02:57:34;10.00;;;5.03;;
74898;SDS011;63458;48.210;16.338;2023-06-22T03:00:00;10.70;;;5.05;;
74898;SDS011;63458;48.210;16.338;2023-06-22T03:02:27;11.40;;;4.82;;
74898;SDS011;63458;48.210;16.338;2023-06-22T03:04:53;10.88;;;5.18;;
74898;SDS011;63458;48.210;16.338;2023-06-22T03:07:20;10.65;;;4.95;;
74898;SDS011;63458;48.210;16.338;2023-06-22T03:09:46;9.43;;;5.15;;
74898;SDS011;63458;48.210;16.338;2023-06-22T03:12:12;10.30;;;4.68;;
74898;SDS011;63458;48.210;16.338;2023-06-22T03:14:38;10.73;;;5.32;;
74898;SDS011;63458;48.210;16.338;2023-06-22T03:17:04;10.00;;;5.20;;
74898;SDS011;63458;48.210;16.338;2023-06-22T03:19:31;11.15;;;5.30;;
74898;SDS011;63458;48.210;16.338;2023-06-22T03:21:57;8.80;;;4.75;;
74898;SDS011;63458;48.210;16.338;2023-06-22T03:24:23;12.55;;;4.82;;
74898;SDS011;63458;48.210;16.338;2023-06-22T03:26:49;13.07;;;5.70;;
74898;SDS011;63458;48.210;16.338;2023-06-22T03:29:15;11.70;;;5.75;;
74898;SDS011;63458;48.210;16.338;2023-06-22T03:31:41;9.75;;;5.32;;
74898;SDS011;63458;48.210;16.338;2023-06-22T03:34:07;13.02;;;6.15;;
74898;SDS011;63458;48.210;16.338;2023-06-22T03:36:33;10.85;;;6.05;;
74898;SDS011;63458;48.210;16.338;2023-06-22T03:38:59;9.93;;;4.90;;
74898;SDS011;63458;48.210;16.338;2023-06-22T03:41:25;10.48;;;4.93;;
74898;SDS011;63458;48.210;16.338;2023-06-22T03:43:52;11.35;;;5.95;;
74898;SDS011;63458;48.210;16.338;2023-06-22T03:46:18;10.55;;;5.35;;
74898;SDS011;63458;48.210;16.338;2023-06-22T03:48:45;11.75;;;6.07;;
74898;SDS011;63458;48.210;16.338;2023-06-22T03:51:11;9.40;;;5.43;;
74898;SDS011;63458;48.210;16.338;2023-06-22T03:53:37;10.45;;;5.50;;
74898;SDS011;63458;48.210;16.338;2023-06-22T03:56:03;11.43;;;5.45;;
74898;SDS011;63458;48.210;16.338;2023-06-22T03:58:29;12.25;;;4.60;;
74898;SDS011;63458;48.210;16.338;2023-06-22T04:00:57;10.95;;;5.50;;
74898;SDS011;63458;48.210;16.338;2023-06-22T04:05:50;11.82;;;6.07;;
74898;SDS011;63458;48.210;16.338;2023-06-22T04:08:17;13.90;;;8.43;;
74898;SDS011;63458;48.210;16.338;2023-06-22T04:10:43;14.15;;;9.88;;
74898;SDS011;63458;48.210;16.338;2023-06-22T04:13:10;14.40;;;7.25;;
74898;SDS011;63458;48.210;16.338;2023-06-22T04:15:36;12.02;;;5.57;;
74898;SDS011;63458;48.210;16.338;2023-06-22T04:18:02;12.30;;;6.32;;
74898;SDS011;63458;48.210;16.338;2023-06-22T04:20:28;11.55;;;5.88;;
74898;SDS011;63458;48.210;16.338;2023-06-22T04:22:54;11.82;;;5.88;;
74898;SDS011;63458;48.210;16.338;2023-06-22T04:25:20;11.05;;;5.80;;
74898;SDS011;63458;48.210;16.338;2023-06-22T04:27:47;9.93;;;5.13;;
74898;SDS011;63458;48.210;16.338;2023-06-22T04:30:13;12.88;;;6.03;;
74898;SDS011;63458;48.210;16.338;2023-06-22T04:32:43;10.95;;;6.38;;
74898;SDS011;63458;48.210;16.338;2023-06-22T04:35:09;13.63;;;5.60;;
74898;SDS011;63458;48.210;16.338;2023-06-22T04:37:35;11.57;;;6.18;;
74898;SDS011;63458;48.210;16.338;2023-06-22T04:40:01;10.23;;;5.82;;
74898;SDS011;63458;48.210;16.338;2023-06-22T04:42:29;10.77;;;6.20;;
74898;SDS011;63458;48.210;16.338;2023-06-22T04:44:57;13.02;;;8.50;;
74898;SDS011;63458;48.210;16.338;2023-06-22T04:47:23;14.23;;;7.72;;
74898;SDS011;63458;48.210;16.338;2023-06-22T04:49:49;12.77;;;6.20;;
74898;SDS011;63458;48.210;16.338;2023-06-22T04:52:15;13.95;;;7.47;;
74898;SDS011;63458;48.210;16.338;2023-06-22T04:54:45;13.05;;;6.30;;
74898;SDS011;63458;48.210;16.338;2023-06-22T04:57:15;10.95;;;6.47;;
74898;SDS011;63458;48.210;16.338;2023-06-22T04:59:41;12.55;;;6.00;;
74898;SDS011;63458;48.210;16.338;2023-06-22T05:02:07;14.02;;;7.45;;
74898;SDS011;63458;48.210;16.338;2023-06-22T05:04:33;11.02;;;5.55;;
74898;SDS011;63458;48.210;16.338;2023-06-22T05:07:03;19.88;;;7.03;;
74898;SDS011;63458;48.210;16.338;2023-06-22T05:09:30;15.02;;;5.57;;
74898;SDS011;63458;48.210;16.338;2023-06-22T05:11:57;10.88;;;5.30;;
74898;SDS011;63458;48.210;16.338;2023-06-22T05:14:24;10.90;;;5.32;;
74898;SDS011;63458;48.210;16.338;2023-06-22T05:16:50;16.10;;;5.95;;
74898;SDS011;63458;48.210;16.338;2023-06-22T05:19:23;11.77;;;5.03;;
74898;SDS011;63458;48.210;16.338;2023-06-22T05:21:49;11.52;;;4.65;;
74898;SDS011;63458;48.210;16.338;2023-06-22T05:24:15;52.33;;;38.72;;
74898;SDS011;63458;48.210;16.338;2023-06-22T05:26:41;40.22;;;27.65;;
74898;SDS011;63458;48.210;16.338;2023-06-22T05:29:07;29.10;;;19.65;;
74898;SDS011;63458;48.210;16.338;2023-06-22T05:31:33;45.83;;;32.15;;
74898;SDS011;63458;48.210;16.338;2023-06-22T05:33:59;34.92;;;24.38;;
74898;SDS011;63458;48.210;16.338;2023-06-22T05:36:25;92.97;;;70.70;;
74898;SDS011;63458;48.210;16.338;2023-06-22T05:38:51;42.83;;;31.30;;
74898;SDS011;63458;48.210;16.338;2023-06-22T05:41:18;23.42;;;16.08;;
74898;SDS011;63458;48.210;16.338;2023-06-22T05:43:44;17.13;;;8.65;;
74898;SDS011;63458;48.210;16.338;2023-06-22T05:46:10;24.40;;;15.05;;
74898;SDS011;63458;48.210;16.338;2023-06-22T05:48:36;12.43;;;5.50;;
74898;SDS011;63458;48.210;16.338;2023-06-22T05:51:02;19.13;;;11.32;;
74898;SDS011;63458;48.210;16.338;2023-06-22T05:53:28;17.02;;;10.90;;
74898;SDS011;63458;48.210;16.338;2023-06-22T05:55:54;12.27;;;6.15;;
74898;SDS011;63458;48.210;16.338;2023-06-22T05:58:20;15.10;;;6.75;;
74898;SDS011;63458;48.210;16.338;2023-06-22T06:00:46;16.38;;;8.13;;
74898;SDS011;63458;48.210;16.338;2023-06-22T06:03:13;17.38;;;7.38;;
74898;SDS011;63458;48.210;16.338;2023-06-22T06:05:42;12.88;;;6.72;;
74898;SDS011;63458;48.210;16.338;2023-06-22T06:08:08;16.70;;;6.45;;
74898;SDS011;63458;48.210;16.338;2023-06-22T06:10:36;14.45;;;5.45;;
74898;SDS011;63458;48.210;16.338;2023-06-22T06:13:05;11.63;;;5.88;;
74898;SDS011;63458;48.210;16.338;2023-06-22T06:15:31;9.57;;;5.03;;
74898;SDS011;63458;48.210;16.338;2023-06-22T06:17:57;12.82;;;5.45;;
74898;SDS011;63458;48.210;16.338;2023-06-22T06:20:24;14.10;;;6.15;;
74898;SDS011;63458;48.210;16.338;2023-06-22T06:22:51;12.93;;;5.80;;
74898;SDS011;63458;48.210;16.338;2023-06-22T06:25:17;13.75;;;5.95;;
74898;SDS011;63458;48.210;16.338;2023-06-22T06:27:45;13.55;;;6.07;;
74898;SDS011;63458;48.210;16.338;2023-06-22T06:30:12;13.32;;;5.65;;
74898;SDS011;63458;48.210;16.338;2023-06-22T06:32:38;13.85;;;6.13;;
74898;SDS011;63458;48.210;16.338;2023-06-22T06:35:08;12.65;;;6.32;;
74898;SDS011;63458;48.210;16.338;2023-06-22T06:37:38;14.48;;;6.70;;
74898;SDS011;63458;48.210;16.338;2023-06-22T06:40:05;14.38;;;6.07;;
74898;SDS011;63458;48.210;16.338;2023-06-22T06:42:39;14.82;;;8.00;;
74898;SDS011;63458;48.210;16.338;2023-06-22T06:45:07;15.27;;;7.55;;
74898;SDS011;63458;48.210;16.338;2023-06-22T06:47:33;18.42;;;8.02;;
74898;SDS011;63458;48.210;16.338;2023-06-22T06:50:00;17.45;;;8.90;;
74898;SDS011;63458;48.210;16.338;2023-06-22T06:52:26;16.10;;;9.23;;
74898;SDS011;63458;48.210;16.338;2023-06-22T06:54:52;17.83;;;9.50;;
74898;SDS011;63458;48.210;16.338;2023-06-22T06:57:18;19.00;;;11.55;;
74898;SDS011;63458;48.210;16.338;2023-06-22T06:59:45;17.58;;;11.45;;
74898;SDS011;63458;48.210;16.338;2023-06-22T07:02:11;19.58;;;11.95;;
74898;SDS011;63458;48.210;16.338;2023-06-22T07:04:37;21.30;;;13.18;;
74898;SDS011;63458;48.210;16.338;2023-06-22T07:07:03;21.08;;;13.48;;
74898;SDS011;63458;48.210;16.338;2023-06-22T07:09:29;20.50;;;14.15;;
74898;SDS011;63458;48.210;16.338;2023-06-22T07:11:55;20.25;;;12.95;;
74898;SDS011;63458;48.210;16.338;2023-06-22T07:14:21;22.45;;;12.02;;
74898;SDS011;63458;48.210;16.338;2023-06-22T07:16:47;20.63;;;13.30;;
74898;SDS011;63458;48.210;16.338;2023-06-22T07:19:13;18.40;;;13.57;;
74898;SDS011;63458;48.210;16.338;2023-06-22T07:21:39;16.10;;;10.93;;
74898;SDS011;63458;48.210;16.338;2023-06-22T07:24:06;19.17;;;11.63;;
74898;SDS011;63458;48.210;16.338;2023-06-22T07:26:32;18.13;;;11.43;;
74898;SDS011;63458;48.210;16.338;2023-06-22T07:28:59;18.20;;;11.23;;
74898;SDS011;63458;48.210;16.338;2023-06-22T07:31:25;21.35;;;11.70;;
74898;SDS011;63458;48.210;16.338;2023-06-22T07:33:51;18.77;;;11.02;;
74898;SDS011;63458;48.210;16.338;2023-06-22T07:36:17;19.67;;;10.98;;
74898;SDS011;63458;48.210;16.338;2023-06-22T07:38:43;17.50;;;10.55;;
74898;SDS011;63458;48.210;16.338;2023-06-22T07:41:09;18.25;;;9.45;;
74898;SDS011;63458;48.210;16.338;2023-06-22T07:43:35;21.67;;;10.88;;
74898;SDS011;63458;48.210;16.338;2023-06-22T07:46:02;17.90;;;9.50;;
74898;SDS011;63458;48.210;16.338;2023-06-22T07:48:29;21.92;;;10.55;;
74898;SDS011;63458;48.210;16.338;2023-06-22T07:50:55;17.83;;;9.73;;
74898;SDS011;63458;48.210;16.338;2023-06-22T07:53:21;15.77;;;10.00;;
74898;SDS011;63458;48.210;16.338;2023-06-22T07:55:48;14.98;;;9.70;;
74898;SDS011;63458;48.210;16.338;2023-06-22T07:58:14;19.60;;;10.18;;
74898;SDS011;63458;48.210;16.338;2023-06-22T08:00:40;17.98;;;9.95;;
74898;SDS011;63458;48.210;16.338;2023-06-22T08:03:06;15.77;;;10.00;;
74898;SDS011;63458;48.210;16.338;2023-06-22T08:05:32;18.52;;;10.43;;
74898;SDS011;63458;48.210;16.338;2023-06-22T08:07:58;15.13;;;9.43;;
74898;SDS011;63458;48.210;16.338;2023-06-22T08:10:25;19.98;;;10.25;;
74898;SDS011;63458;48.210;16.338;2023-06-22T08:12:51;17.25;;;10.45;;
74898;SDS011;63458;48.210;16.338;2023-06-22T08:15:17;16.10;;;10.05;;
74898;SDS011;63458;48.210;16.338;2023-06-22T08:17:44;16.30;;;9.65;;
74898;SDS011;63458;48.210;16.338;2023-06-22T08:20:11;17.85;;;10.32;;
74898;SDS011;63458;48.210;16.338;2023-06-22T08:22:37;14.07;;;9.70;;
74898;SDS011;63458;48.210;16.338;2023-06-22T08:25:03;18.20;;;10.13;;
74898;SDS011;63458;48.210;16.338;2023-06-22T08:27:30;17.02;;;10.50;;
74898;SDS011;63458;48.210;16.338;2023-06-22T08:29:59;16.75;;;9.77;;
74898;SDS011;63458;48.210;16.338;2023-06-22T08:32:26;17.52;;;10.60;;
74898;SDS011;63458;48.210;16.338;2023-06-22T08:34:53;16.52;;;10.02;;
74898;SDS011;63458;48.210;16.338;2023-06-22T08:37:19;14.40;;;10.25;;
74898;SDS011;63458;48.210;16.338;2023-06-22T08:39:45;17.42;;;10.48;;
74898;SDS011;63458;48.210;16.338;2023-06-22T08:42:11;18.05;;;10.23;;
74898;SDS011;63458;48.210;16.338;2023-06-22T08:44:37;15.80;;;9.27;;
74898;SDS011;63458;48.210;16.338;2023-06-22T08:47:04;15.02;;;9.32;;
74898;SDS011;63458;48.210;16.338;2023-06-22T08:49:30;16.40;;;10.75;;
74898;SDS011;63458;48.210;16.338;2023-06-22T08:51:56;17.67;;;10.85;;
74898;SDS011;63458;48.210;16.338;2023-06-22T08:54:22;17.83;;;10.40;;
74898;SDS011;63458;48.210;16.338;2023-06-22T08:56:48;16.65;;;10.43;;
74898;SDS011;63458;48.210;16.338;2023-06-22T08:59:14;16.48;;;10.80;;
74898;SDS011;63458;48.210;16.338;2023-06-22T09:01:40;16.38;;;11.35;;
74898;SDS011;63458;48.210;16.338;2023-06-22T09:04:10;15.63;;;10.30;;
74898;SDS011;63458;48.210;16.338;2023-06-22T09:06:36;17.83;;;11.93;;
74898;SDS011;63458;48.210;16.338;2023-06-22T09:09:09;16.80;;;10.80;;
74898;SDS011;63458;48.210;16.338;2023-06-22T09:11:35;15.02;;;9.73;;
74898;SDS011;63458;48.210;16.338;2023-06-22T09:14:05;16.58;;;9.88;;
74898;SDS011;63458;48.210;16.338;2023-06-22T09:16:31;14.98;;;9.50;;
74898;SDS011;63458;48.210;16.338;2023-06-22T09:18:57;14.75;;;10.23;;
74898;SDS011;63458;48.210;16.338;2023-06-22T09:21:23;16.63;;;9.65;;
74898;SDS011;63458;48.210;16.338;2023-06-22T09:23:49;14.73;;;9.82;;
74898;SDS011;63458;48.210;16.338;2023-06-22T09:26:16;17.80;;;10.90;;
74898;SDS011;63458;48.210;16.338;2023-06-22T09:28:42;15.93;;;10.20;;
74898;SDS011;63458;48.210;16.338;2023-06-22T09:31:08;16.30;;;10.40;;
74898;SDS011;63458;48.210;16.338;2023-06-22T09:33:35;16.35;;;9.18;;
74898;SDS011;63458;48.210;16.338;2023-06-22T09:36:02;14.57;;;10.75;;
74898;SDS011;63458;48.210;16.338;2023-06-22T09:38:29;15.73;;;10.18;;
74898;SDS011;63458;48.210;16.338;2023-06-22T09:40:55;15.90;;;10.57;;
74898;SDS011;63458;48.210;16.338;2023-06-22T09:43:21;20.17;;;10.15;;
74898;SDS011;63458;48.210;16.338;2023-06-22T09:45:47;15.63;;;9.13;;
74898;SDS011;63458;48.210;16.338;2023-06-22T09:48:13;19.55;;;11.02;;
74898;SDS011;63458;48.210;16.338;2023-06-22T09:50:40;14.75;;;9.20;;
74898;SDS011;63458;48.210;16.338;2023-06-22T09:53:06;17.73;;;10.43;;
74898;SDS011;63458;48.210;16.338;2023-06-22T09:55:32;14.20;;;9.35;;
74898;SDS011;63458;48.210;16.338;2023-06-22T09:57:58;15.13;;;10.40;;
74898;SDS011;63458;48.210;16.338;2023-06-22T10:00:24;16.70;;;10.55;;
74898;SDS011;63458;48.210;16.338;2023-06-22T10:02:52;15.95;;;9.95;;
74898;SDS011;63458;48.210;16.338;2023-06-22T10:05:19;15.60;;;8.93;;
74898;SDS011;63458;48.210;16.338;2023-06-22T10:07:45;14.88;;;9.77;;
74898;SDS011;63458;48.210;16.338;2023-06-22T10:10:11;15.50;;;9.70;;
74898;SDS011;63458;48.210;16.338;2023-06-22T10:12:41;14.00;;;9.40;;
74898;SDS011;63458;48.210;16.338;2023-06-22T10:15:08;15.88;;;8.85;;
74898;SDS011;63458;48.210;16.338;2023-06-22T10:17:34;15.80;;;9.68;;
74898;SDS011;63458;48.210;16.338;2023-06-22T10:20:00;14.57;;;9.55;;
74898;SDS011;63458;48.210;16.338;2023-06-22T10:22:36;15.88;;;9.65;;
74898;SDS011;63458;48.210;16.338;2023-06-22T10:25:02;16.50;;;10.00;;
74898;SDS011;63458;48.210;16.338;2023-06-22T10:27:28;12.90;;;8.43;;
74898;SDS011;63458;48.210;16.338;2023-06-22T10:29:54;13.38;;;8.45;;
74898;SDS011;63458;48.210;16.338;2023-06-22T10:32:20;12.73;;;8.45;;
74898;SDS011;63458;48.210;16.338;2023-06-22T10:34:46;14.55;;;8.77;;
74898;SDS011;63458;48.210;16.338;2023-06-22T10:37:12;17.33;;;8.52;;
74898;SDS011;63458;48.210;16.338;2023-06-22T10:39:38;12.38;;;7.15;;
74898;SDS011;63458;48.210;16.338;2023-06-22T10:42:04;13.70;;;6.45;;
74898;SDS011;63458;48.210;16.338;2023-06-22T10:44:30;13.88;;;6.68;;
74898;SDS011;63458;48.210;16.338;2023-06-22T10:46:56;13.05;;;6.97;;
74898;SDS011;63458;48.210;16.338;2023-06-22T10:49:22;11.45;;;5.95;;
74898;SDS011;63458;48.210;16.338;2023-06-22T10:51:48;12.50;;;6.53;;
74898;SDS011;63458;48.210;16.338;2023-06-22T10:54:14;13.30;;;5.55;;
74898;SDS011;63458;48.210;16.338;2023-06-22T10:56:43;10.70;;;5.35;;
74898;SDS011;63458;48.210;16.338;2023-06-22T10:59:09;11.63;;;5.28;;
74898;SDS011;63458;48.210;16.338;2023-06-22T11:01:35;12.20;;;5.28;;
74898;SDS011;63458;48.210;16.338;2023-06-22T11:04:01;12.02;;;4.95;;
74898;SDS011;63458;48.210;16.338;2023-06-22T11:06:27;10.70;;;5.47;;
74898;SDS011;63458;48.210;16.338;2023-06-22T11:08:54;10.60;;;4.80;;
74898;SDS011;63458;48.210;16.338;2023-06-22T11:11:20;10.80;;;5.65;;
74898;SDS011;63458;48.210;16.338;2023-06-22T11:13:46;14.32;;;5.88;;
74898;SDS011;63458;48.210;16.338;2023-06-22T11:16:11;10.93;;;5.75;;
74898;SDS011;63458;48.210;16.338;2023-06-22T11:18:37;12.05;;;6.05;;
74898;SDS011;63458;48.210;16.338;2023-06-22T11:21:03;13.18;;;6.75;;
74898;SDS011;63458;48.210;16.338;2023-06-22T11:23:29;13.15;;;6.65;;
74898;SDS011;63458;48.210;16.338;2023-06-22T11:25:55;14.00;;;7.57;;
74898;SDS011;63458;48.210;16.338;2023-06-22T11:28:21;14.23;;;6.78;;
74898;SDS011;63458;48.210;16.338;2023-06-22T11:30:47;14.52;;;8.13;;
74898;SDS011;63458;48.210;16.338;2023-06-22T11:33:14;13.73;;;7.97;;
74898;SDS011;63458;48.210;16.338;2023-06-22T11:35:40;11.85;;;7.65;;
74898;SDS011;63458;48.210;16.338;2023-06-22T11:38:06;14.40;;;9.00;;
74898;SDS011;63458;48.210;16.338;2023-06-22T11:40:32;14.93;;;8.32;;
74898;SDS011;63458;48.210;16.338;2023-06-22T11:42:58;15.27;;;8.68;;
74898;SDS011;63458;48.210;16.338;2023-06-22T11:45:24;31.30;;;23.45;;
74898;SDS011;63458;48.210;16.338;2023-06-22T11:47:50;13.65;;;7.18;;
74898;SDS011;63458;48.210;16.338;2023-06-22T11:50:17;15.98;;;7.70;;
74898;SDS011;63458;48.210;16.338;2023-06-22T11:52:43;14.30;;;6.47;;
74898;SDS011;63458;48.210;16.338;2023-06-22T11:55:09;10.93;;;6.30;;
74898;SDS011;63458;48.210;16.338;2023-06-22T11:57:36;11.45;;;6.53;;
74898;SDS011;63458;48.210;16.338;2023-06-22T12:00:03;14.38;;;5.97;;
74898;SDS011;63458;48.210;16.338;2023-06-22T12:02:49;11.43;;;5.90;;
74898;SDS011;63458;48.210;16.338;2023-06-22T12:05:16;10.60;;;5.72;;
74898;SDS011;63458;48.210;16.338;2023-06-22T12:07:42;12.57;;;6.05;;
74898;SDS011;63458;48.210;16.338;2023-06-22T12:10:08;9.63;;;5.95;;
74898;SDS011;63458;48.210;16.338;2023-06-22T12:12:34;13.38;;;6.40;;
74898;SDS011;63458;48.210;16.338;2023-06-22T12:15:00;10.85;;;5.60;;
74898;SDS011;63458;48.210;16.338;2023-06-22T12:17:28;11.05;;;5.72;;
74898;SDS011;63458;48.210;16.338;2023-06-22T12:19:55;9.30;;;5.25;;
74898;SDS011;63458;48.210;16.338;2023-06-22T12:22:21;12.43;;;5.90;;
74898;SDS011;63458;48.210;16.338;2023-06-22T12:24:47;10.40;;;5.32;;
74898;SDS011;63458;48.210;16.338;2023-06-22T12:27:13;11.75;;;6.13;;
74898;SDS011;63458;48.210;16.338;2023-06-22T12:29:41;12.43;;;6.03;;
74898;SDS011;63458;48.210;16.338;2023-06-22T12:32:07;12.25;;;5.82;;
74898;SDS011;63458;48.210;16.338;2023-06-22T12:34:33;10.95;;;5.25;;
74898;SDS011;63458;48.210;16.338;2023-06-22T12:36:59;12.45;;;5.75;;
74898;SDS011;63458;48.210;16.338;2023-06-22T12:39:26;12.48;;;5.10;;
74898;SDS011;63458;48.210;16.338;2023-06-22T12:41:52;12.85;;;5.43;;
74898;SDS011;63458;48.210;16.338;2023-06-22T12:44:18;10.68;;;6.00;;
74898;SDS011;63458;48.210;16.338;2023-06-22T12:46:44;11.70;;;5.80;;
74898;SDS011;63458;48.210;16.338;2023-06-22T12:49:10;10.32;;;5.50;;
74898;SDS011;63458;48.210;16.338;2023-06-22T12:51:39;9.48;;;5.50;;
74898;SDS011;63458;48.210;16.338;2023-06-22T12:54:05;11.50;;;6.45;;
74898;SDS011;63458;48.210;16.338;2023-06-22T12:56:31;13.55;;;7.57;;
74898;SDS011;63458;48.210;16.338;2023-06-22T12:58:57;11.38;;;5.68;;
74898;SDS011;63458;48.210;16.338;2023-06-22T13:01:26;13.07;;;6.03;;
74898;SDS011;63458;48.210;16.338;2023-06-22T13:03:52;11.82;;;6.18;;
74898;SDS011;63458;48.210;16.338;2023-06-22T13:06:18;11.30;;;6.07;;
74898;SDS011;63458;48.210;16.338;2023-06-22T13:08:44;12.23;;;6.22;;
74898;SDS011;63458;48.210;16.338;2023-06-22T13:11:10;14.30;;;6.03;;
74898;SDS011;63458;48.210;16.338;2023-06-22T13:13:37;11.95;;;6.55;;
74898;SDS011;63458;48.210;16.338;2023-06-22T13:16:03;13.60;;;6.80;;
74898;SDS011;63458;48.210;16.338;2023-06-22T13:18:29;10.85;;;6.72;;
74898;SDS011;63458;48.210;16.338;2023-06-22T13:20:55;12.65;;;6.68;;
74898;SDS011;63458;48.210;16.338;2023-06-22T13:23:23;13.77;;;6.45;;
74898;SDS011;63458;48.210;16.338;2023-06-22T13:25:49;12.85;;;6.88;;
74898;SDS011;63458;48.210;16.338;2023-06-22T13:28:15;11.25;;;7.00;;
74898;SDS011;63458;48.210;16.338;2023-06-22T13:30:41;12.32;;;6.75;;
74898;SDS011;63458;48.210;16.338;2023-06-22T13:33:08;12.43;;;7.07;;
74898;SDS011;63458;48.210;16.338;2023-06-22T13:35:34;12.85;;;7.32;;
74898;SDS011;63458;48.210;16.338;2023-06-22T13:38:01;15.15;;;7.70;;
74898;SDS011;63458;48.210;16.338;2023-06-22T13:40:27;13.30;;;7.07;;
74898;SDS011;63458;48.210;16.338;2023-06-22T13:42:53;13.30;;;6.72;;
74898;SDS011;63458;48.210;16.338;2023-06-22T13:45:19;15.30;;;7.38;;
74898;SDS011;63458;48.210;16.338;2023-06-22T13:47:45;12.48;;;7.32;;
74898;SDS011;63458;48.210;16.338;2023-06-22T13:50:11;14.18;;;7.18;;
74898;SDS011;63458;48.210;16.338;2023-06-22T13:52:38;10.48;;;6.85;;
74898;SDS011;63458;48.210;16.338;2023-06-22T13:55:04;14.10;;;7.25;;
74898;SDS011;63458;48.210;16.338;2023-06-22T13:57:31;11.68;;;7.05;;
74898;SDS011;63458;48.210;16.338;2023-06-22T13:59:58;12.18;;;6.78;;
74898;SDS011;63458;48.210;16.338;2023-06-22T14:02:25;13.10;;;6.93;;
74898;SDS011;63458;48.210;16.338;2023-06-22T14:04:52;11.90;;;6.82;;
74898;SDS011;63458;48.210;16.338;2023-06-22T14:07:18;12.13;;;6.82;;
74898;SDS011;63458;48.210;16.338;2023-06-22T14:09:45;10.77;;;6.65;;
74898;SDS011;63458;48.210;16.338;2023-06-22T14:12:12;13.45;;;7.50;;
74898;SDS011;63458;48.210;16.338;2023-06-22T14:14:38;14.25;;;8.43;;
74898;SDS011;63458;48.210;16.338;2023-06-22T14:17:04;20.90;;;9.20;;
74898;SDS011;63458;48.210;16.338;2023-06-22T14:19:30;19.70;;;8.55;;
74898;SDS011;63458;48.210;16.338;2023-06-22T14:21:56;14.32;;;7.88;;
74898;SDS011;63458;48.210;16.338;2023-06-22T14:24:23;12.63;;;7.78;;
74898;SDS011;63458;48.210;16.338;2023-06-22T14:26:49;12.70;;;7.07;;